Schedule Details


Flight Number: CTN412
Departure: Kastela (LDSP) at 14:45
Arrival: Frankfurt/main (EDDF) at 16:35
Route: ZDA DCT BUSET DCT VEKEN DCT ERKIR UQ863 TEKSI/N0450F300 UQ863 ETASA T163 PSA

Weather Information
LDSP 290030Z AUTO 34005KT 310V030 CAVOK 12/10 Q1008
EDDF 290050Z 22006KT 9999 -RA FEW008 BKN015 02/02 Q1002 NOSIG
Schedule Frequency

Route Map